Time;durP1;ratioP1;P1;durP2;ratioP2;P2;SDS_P1;SDS_P2;PMS_P1;PMS_P2;Temp;Humidity;BMP_temperature;BMP_pressure;BME280_temperature;BME280_humidity;BME280_pressure;Samples;Min_cycle;Max_cycle;Signal;HPM_P1;HPM_P2
2024/03/27 00:02:07;;;;;;;3.00;1.25;;;8.80;99.90;;;;;;5065756;28;20499;-69
2024/03/27 00:04:33;;;;;;;2.60;1.30;;;8.70;99.90;;;;;;5059749;28;20048;-69
2024/03/27 00:06:59;;;;;;;1.83;0.52;;;8.70;99.90;;;;;;5079493;28;20041;-70
2024/03/27 00:09:24;;;;;;;4.63;1.42;;;8.60;99.90;;;;;;5053508;28;20473;-70
2024/03/27 00:11:50;;;;;;;3.58;0.95;;;8.60;99.90;;;;;;5053484;28;20560;-69
2024/03/27 00:14:17;;;;;;;7.05;1.30;;;8.50;99.90;;;;;;5061331;28;20054;-69
2024/03/27 00:16:44;;;;;;;1.58;0.90;;;8.50;99.90;;;;;;5065527;28;20198;-70
2024/03/27 00:19:10;;;;;;;0.80;0.63;;;8.50;99.90;;;;;;5058142;28;20081;-69
2024/03/27 00:21:37;;;;;;;0.85;0.63;;;8.50;99.90;;;;;;5066075;28;20036;-69
2024/03/27 00:24:03;;;;;;;0.95;0.60;;;8.50;99.90;;;;;;5061499;28;20126;-70
2024/03/27 00:26:30;;;;;;;1.67;1.35;;;8.50;99.90;;;;;;5058353;28;20507;-69
2024/03/27 00:28:55;;;;;;;0.90;0.73;;;8.50;99.90;;;;;;5060738;28;20200;-69
2024/03/27 00:31:21;;;;;;;1.85;0.90;;;8.40;99.90;;;;;;5056212;28;20095;-69
2024/03/27 00:33:47;;;;;;;1.88;0.57;;;8.50;99.90;;;;;;5041507;28;20492;-70
2024/03/27 00:36:12;;;;;;;0.75;0.52;;;8.40;99.90;;;;;;5052658;28;20039;-70
2024/03/27 00:38:38;;;;;;;1.05;0.73;;;8.40;99.90;;;;;;5059733;28;20044;-69
2024/03/27 00:41:04;;;;;;;1.42;0.82;;;8.40;99.90;;;;;;5042018;28;20070;-69
2024/03/27 00:43:30;;;;;;;1.17;0.73;;;8.40;99.90;;;;;;5065291;28;20036;-70
2024/03/27 00:45:55;;;;;;;3.33;1.20;;;8.40;99.90;;;;;;5059424;28;20040;-70
2024/03/27 00:48:22;;;;;;;2.00;1.00;;;8.40;99.90;;;;;;5063867;28;20045;-69
2024/03/27 00:50:48;;;;;;;2.25;0.82;;;8.30;99.90;;;;;;5053874;28;20044;-69
2024/03/27 00:53:14;;;;;;;1.08;0.88;;;8.30;99.90;;;;;;5064242;28;20044;-69
2024/03/27 00:55:39;;;;;;;2.00;1.05;;;8.30;99.90;;;;;;5050318;28;20082;-69
2024/03/27 00:58:05;;;;;;;1.70;1.08;;;8.20;99.90;;;;;;5080864;28;20131;-69
2024/03/27 01:00:31;;;;;;;2.05;0.82;;;8.20;99.90;;;;;;5081948;28;20037;-69
2024/03/27 01:02:56;;;;;;;4.40;0.93;;;8.10;99.90;;;;;;5062979;28;20119;-69
2024/03/27 01:05:22;;;;;;;4.57;1.42;;;8.10;99.90;;;;;;5061455;28;20040;-69
2024/03/27 01:07:48;;;;;;;1.40;0.90;;;8.00;99.90;;;;;;5067025;28;20488;-69
2024/03/27 01:10:16;;;;;;;3.13;0.70;;;8.00;99.90;;;;;;5047575;28;20056;-69
2024/03/27 01:12:42;;;;;;;1.33;0.70;;;8.00;99.90;;;;;;5054369;28;20068;-68
2024/03/27 01:15:09;;;;;;;1.35;1.13;;;8.00;99.90;;;;;;5056470;28;20091;-69
2024/03/27 01:17:34;;;;;;;2.10;1.20;;;8.00;99.90;;;;;;5057619;28;20105;-70
2024/03/27 01:20:01;;;;;;;1.15;0.80;;;8.00;99.90;;;;;;5057998;28;20036;-69
2024/03/27 01:22:27;;;;;;;1.40;0.70;;;8.10;99.90;;;;;;5060882;28;20032;-69
2024/03/27 01:24:52;;;;;;;1.65;0.85;;;8.10;99.90;;;;;;5064556;28;20032;-69
2024/03/27 01:27:18;;;;;;;1.08;0.63;;;8.00;99.90;;;;;;5068416;28;20101;-70
2024/03/27 01:29:45;;;;;;;1.70;1.00;;;8.00;99.90;;;;;;5070751;28;20514;-69
2024/03/27 01:32:11;;;;;;;2.38;1.20;;;8.00;99.90;;;;;;5050574;28;20169;-69
2024/03/27 01:34:37;;;;;;;3.53;1.13;;;7.90;99.90;;;;;;5064864;28;20139;-70
2024/03/27 01:37:03;;;;;;;2.47;0.70;;;7.90;99.90;;;;;;5064589;28;20040;-69
2024/03/27 01:39:28;;;;;;;1.25;0.80;;;7.80;99.90;;;;;;5053610;28;20387;-69
2024/03/27 01:41:54;;;;;;;1.45;0.73;;;7.80;99.90;;;;;;5064402;28;20092;-69
2024/03/27 01:44:20;;;;;;;1.35;0.50;;;7.80;99.90;;;;;;5069118;28;20040;-70
2024/03/27 01:46:50;;;;;;;5.88;1.20;;;7.80;99.90;;;;;;5066069;28;20036;-69
2024/03/27 01:49:17;;;;;;;2.42;0.93;;;7.80;99.90;;;;;;5065276;28;20036;-70
2024/03/27 01:51:43;;;;;;;1.27;0.63;;;7.70;99.90;;;;;;5085077;28;20063;-69
2024/03/27 01:54:17;;;;;;;1.98;1.15;;;7.70;99.90;;;;;;5066524;28;20048;-70
2024/03/27 01:56:44;;;;;;;1.58;0.90;;;7.70;99.90;;;;;;5060957;28;20056;-69
2024/03/27 01:59:10;;;;;;;1.42;0.75;;;7.60;99.90;;;;;;5067419;28;20036;-69
2024/03/27 02:01:36;;;;;;;2.45;0.95;;;7.70;99.90;;;;;;5054657;28;20033;-69
2024/03/27 02:04:02;;;;;;;1.35;0.95;;;7.60;99.90;;;;;;5061817;28;20060;-69
2024/03/27 02:06:28;;;;;;;2.38;1.05;;;7.60;99.90;;;;;;5064654;28;20054;-70
2024/03/27 02:08:54;;;;;;;0.93;0.65;;;7.60;99.90;;;;;;5045242;28;20040;-69
2024/03/27 02:11:22;;;;;;;2.50;1.42;;;7.60;99.90;;;;;;5050197;28;20093;-69
2024/03/27 02:13:48;;;;;;;2.33;1.27;;;7.60;99.90;;;;;;5058486;28;20176;-69
2024/03/27 02:16:14;;;;;;;2.45;1.10;;;7.60;99.90;;;;;;5063662;28;20147;-70
2024/03/27 02:18:39;;;;;;;0.90;0.60;;;7.70;99.90;;;;;;5060471;28;20045;-69
2024/03/27 02:21:07;;;;;;;1.13;0.70;;;7.70;99.90;;;;;;5060911;28;20404;-69
2024/03/27 02:23:40;;;;;;;1.20;0.82;;;7.70;99.90;;;;;;5053865;28;20452;-69
2024/03/27 02:26:17;;;;;;;1.10;0.80;;;7.70;99.90;;;;;;5076143;28;20032;-69
2024/03/27 02:28:44;;;;;;;3.97;0.90;;;7.70;99.90;;;;;;5083548;28;20054;-69
2024/03/27 02:31:10;;;;;;;1.38;0.65;;;7.70;99.90;;;;;;5063942;28;20043;-69
2024/03/27 02:33:36;;;;;;;1.70;0.93;;;7.80;99.90;;;;;;5053073;28;20113;-70
2024/03/27 02:36:02;;;;;;;2.05;0.82;;;7.70;99.90;;;;;;5062628;28;20032;-69
2024/03/27 02:38:28;;;;;;;1.23;0.73;;;7.70;99.90;;;;;;5071266;28;20052;-69
2024/03/27 02:40:54;;;;;;;2.30;0.85;;;7.60;99.90;;;;;;5054565;28;20112;-69
2024/03/27 02:43:20;;;;;;;0.95;0.55;;;7.60;99.90;;;;;;5066182;28;20032;-70
2024/03/27 02:45:46;;;;;;;1.98;0.90;;;7.60;99.90;;;;;;5046335;28;20378;-69
2024/03/27 02:48:12;;;;;;;1.65;0.80;;;7.60;99.90;;;;;;5066377;28;20047;-69
2024/03/27 02:50:38;;;;;;;1.33;0.93;;;7.60;99.90;;;;;;5063472;28;20052;-70
2024/03/27 02:53:04;;;;;;;0.65;0.65;;;7.60;99.90;;;;;;5069884;28;20039;-70
2024/03/27 02:55:29;;;;;;;2.35;1.20;;;7.50;99.90;;;;;;5060892;28;20066;-69
2024/03/27 02:57:55;;;;;;;0.85;0.80;;;7.50;99.90;;;;;;5057945;28;20272;-71
2024/03/27 03:00:21;;;;;;;1.85;1.25;;;7.40;99.90;;;;;;5043926;28;20055;-69
2024/03/27 03:02:47;;;;;;;1.63;0.98;;;7.50;99.90;;;;;;5053735;28;20033;-70
2024/03/27 03:05:12;;;;;;;3.08;1.00;;;7.40;99.90;;;;;;5077780;28;20460;-69
2024/03/27 03:07:38;;;;;;;1.58;0.90;;;7.40;99.90;;;;;;5061638;28;20165;-69
2024/03/27 03:10:04;;;;;;;2.58;0.88;;;7.40;99.90;;;;;;5075955;28;20028;-70
2024/03/27 03:12:30;;;;;;;3.00;1.13;;;7.40;99.90;;;;;;5066801;28;20709;-69
2024/03/27 03:14:55;;;;;;;1.15;0.57;;;7.30;99.90;;;;;;5080611;28;20060;-69
2024/03/27 03:17:21;;;;;;;2.05;1.35;;;7.30;99.90;;;;;;5059119;28;20064;-69
2024/03/27 03:19:47;;;;;;;2.10;0.98;;;7.40;99.90;;;;;;5064896;28;20166;-69
2024/03/27 03:22:12;;;;;;;1.45;1.02;;;7.40;99.90;;;;;;5062987;28;20043;-69
2024/03/27 03:24:38;;;;;;;2.10;0.85;;;7.40;99.90;;;;;;5065464;28;20024;-69
2024/03/27 03:27:04;;;;;;;2.05;0.73;;;7.40;99.90;;;;;;5101523;28;20081;-69
2024/03/27 03:29:30;;;;;;;2.50;0.50;;;7.40;99.90;;;;;;5052523;28;20040;-70
2024/03/27 03:31:57;;;;;;;1.45;0.88;;;7.40;99.90;;;;;;5066545;28;20034;-70
2024/03/27 03:34:24;;;;;;;0.98;0.85;;;7.40;99.90;;;;;;5068229;28;20040;-69
2024/03/27 03:36:50;;;;;;;5.32;1.20;;;7.50;99.90;;;;;;5071864;28;20070;-69
2024/03/27 03:39:16;;;;;;;0.88;0.68;;;7.50;99.90;;;;;;5050877;28;20109;-69
2024/03/27 03:41:42;;;;;;;2.13;1.10;;;7.50;99.90;;;;;;5057429;28;20428;-69
2024/03/27 03:44:08;;;;;;;2.90;1.20;;;7.50;99.90;;;;;;5065248;28;20036;-70
2024/03/27 03:46:34;;;;;;;2.03;1.38;;;7.50;99.90;;;;;;5063110;28;20038;-69
2024/03/27 03:48:59;;;;;;;1.23;0.75;;;7.50;99.90;;;;;;5062005;28;20071;-69
2024/03/27 03:51:25;;;;;;;1.30;1.02;;;7.50;99.90;;;;;;5055475;28;20381;-69
2024/03/27 03:53:52;;;;;;;2.58;1.27;;;7.60;99.90;;;;;;5061170;28;20047;-69
2024/03/27 03:56:18;;;;;;;1.40;0.73;;;7.60;99.90;;;;;;5072301;28;20059;-70
2024/03/27 03:58:44;;;;;;;0.55;0.50;;;7.70;99.90;;;;;;5052960;28;20043;-70
2024/03/27 04:01:11;;;;;;;0.98;0.57;;;7.70;99.90;;;;;;5051472;28;20487;-70
2024/03/27 04:03:36;;;;;;;1.50;1.02;;;7.70;99.90;;;;;;5063188;28;20097;-70
2024/03/27 04:06:02;;;;;;;4.60;1.55;;;7.80;99.90;;;;;;5063988;28;20045;-70
2024/03/27 04:08:28;;;;;;;3.03;1.27;;;7.80;99.90;;;;;;5062667;28;20230;-69
2024/03/27 04:10:54;;;;;;;3.10;1.55;;;7.80;99.90;;;;;;5064225;28;20167;-70
2024/03/27 04:13:19;;;;;;;0.40;0.40;;;7.80;99.90;;;;;;5049096;28;20044;-70
2024/03/27 04:15:45;;;;;;;1.40;0.85;;;7.90;99.90;;;;;;5065760;28;20480;-70
2024/03/27 04:18:11;;;;;;;1.38;0.85;;;7.90;99.90;;;;;;5065987;28;20043;-69
2024/03/27 04:20:40;;;;;;;2.38;1.23;;;7.90;99.90;;;;;;5068830;28;20293;-70
2024/03/27 04:23:06;;;;;;;3.33;0.95;;;8.00;99.90;;;;;;5062775;28;20043;-70
2024/03/27 04:25:32;;;;;;;3.00;0.95;;;8.00;99.90;;;;;;5066024;28;20516;-71
2024/03/27 04:27:58;;;;;;;1.15;0.90;;;8.00;99.90;;;;;;5063845;28;20051;-70
2024/03/27 04:30:24;;;;;;;0.50;0.47;;;8.10;99.90;;;;;;5052289;28;20035;-70
2024/03/27 04:32:49;;;;;;;1.38;0.73;;;8.10;99.90;;;;;;5064460;28;20046;-70
2024/03/27 04:35:15;;;;;;;1.73;0.80;;;8.20;99.90;;;;;;5067241;28;20060;-71
2024/03/27 04:37:41;;;;;;;1.27;0.93;;;8.20;99.90;;;;;;5063172;28;20123;-70
2024/03/27 04:40:09;;;;;;;2.03;1.30;;;8.30;99.90;;;;;;5063089;28;20120;-69
2024/03/27 04:42:39;;;;;;;0.98;0.90;;;8.30;99.90;;;;;;5058606;28;20079;-70
2024/03/27 04:45:07;;;;;;;1.85;0.93;;;8.30;99.90;;;;;;5067575;28;20066;-70
2024/03/27 04:47:36;;;;;;;3.35;0.85;;;8.30;99.90;;;;;;5049971;28;20039;-70
2024/03/27 04:50:03;;;;;;;1.88;1.17;;;8.30;99.90;;;;;;5080304;28;20303;-70
2024/03/27 04:52:28;;;;;;;2.97;1.25;;;8.30;99.90;;;;;;5052739;28;20036;-70
2024/03/27 04:54:54;;;;;;;0.77;0.60;;;8.30;99.90;;;;;;5065450;28;20043;-70
2024/03/27 04:57:20;;;;;;;1.17;1.02;;;8.30;99.90;;;;;;5066437;28;20083;-70
2024/03/27 04:59:46;;;;;;;2.15;1.40;;;8.20;99.90;;;;;;5066742;28;20036;-70
2024/03/27 05:02:12;;;;;;;1.75;0.88;;;8.20;99.90;;;;;;5051934;28;20032;-70
2024/03/27 05:04:38;;;;;;;1.60;0.85;;;8.20;99.90;;;;;;5050389;28;20192;-71
2024/03/27 05:07:04;;;;;;;1.73;1.17;;;8.20;99.90;;;;;;5067806;28;20039;-70
2024/03/27 05:09:35;;;;;;;6.63;1.00;;;8.10;99.90;;;;;;5065635;28;20572;-70
2024/03/27 05:12:02;;;;;;;7.10;1.15;;;8.10;99.90;;;;;;5069711;28;20101;-70
2024/03/27 05:14:29;;;;;;;1.27;0.70;;;8.10;99.90;;;;;;5063270;28;20078;-70
2024/03/27 05:16:55;;;;;;;1.40;0.93;;;8.00;99.90;;;;;;5062932;28;20162;-70
2024/03/27 05:19:21;;;;;;;1.30;1.05;;;8.00;99.90;;;;;;5066053;28;20504;-70
2024/03/27 05:21:48;;;;;;;0.80;0.50;;;8.10;99.90;;;;;;5063586;28;20028;-70
2024/03/27 05:24:13;;;;;;;0.93;0.75;;;8.00;99.90;;;;;;5062094;28;20400;-69
2024/03/27 05:26:39;;;;;;;1.63;0.88;;;8.00;99.90;;;;;;5075931;28;20037;-70
2024/03/27 05:29:05;;;;;;;1.40;0.90;;;8.00;99.90;;;;;;5061369;28;20059;-70
2024/03/27 05:31:30;;;;;;;1.45;0.80;;;8.00;99.90;;;;;;5063797;28;20487;-70
2024/03/27 05:33:56;;;;;;;6.65;1.27;;;8.00;99.90;;;;;;5068906;28;20040;-71
2024/03/27 05:36:23;;;;;;;1.38;0.88;;;8.10;99.90;;;;;;5046294;28;20121;-70
2024/03/27 05:38:48;;;;;;;1.23;0.82;;;8.10;99.90;;;;;;5046457;28;20051;-70
2024/03/27 05:41:14;;;;;;;8.10;1.40;;;8.10;99.90;;;;;;5068690;28;20044;-70
2024/03/27 05:43:40;;;;;;;1.52;0.80;;;8.10;99.90;;;;;;5064475;28;20055;-70
2024/03/27 05:46:05;;;;;;;2.58;1.23;;;8.20;99.90;;;;;;5065497;28;20101;-70
2024/03/27 05:48:32;;;;;;;2.42;1.00;;;8.20;99.90;;;;;;5066404;28;20080;-70
2024/03/27 05:50:58;;;;;;;1.42;0.60;;;8.30;99.90;;;;;;5065650;28;20143;-70
2024/03/27 05:53:23;;;;;;;2.75;0.98;;;8.20;99.90;;;;;;5083162;28;20519;-70
2024/03/27 05:55:56;;;;;;;3.22;1.00;;;8.30;99.90;;;;;;5062916;28;20056;-70
2024/03/27 05:58:23;;;;;;;1.42;1.00;;;8.40;99.90;;;;;;5066249;28;20052;-70
2024/03/27 06:00:48;;;;;;;0.90;0.68;;;8.40;99.90;;;;;;5061229;28;20059;-69
2024/03/27 06:03:14;;;;;;;1.80;1.55;;;8.40;99.90;;;;;;5063303;28;20066;-70
2024/03/27 06:05:41;;;;;;;2.45;1.10;;;8.50;99.90;;;;;;5045808;28;20341;-70
2024/03/27 06:08:06;;;;;;;1.48;1.13;;;8.50;99.90;;;;;;5064607;28;20510;-71
2024/03/27 06:10:32;;;;;;;1.52;0.93;;;8.50;99.90;;;;;;5062902;28;20040;-70
2024/03/27 06:13:03;;;;;;;1.40;0.88;;;8.60;99.90;;;;;;5062556;28;20048;-70
2024/03/27 06:15:32;;;;;;;3.10;0.85;;;8.60;99.90;;;;;;5066180;28;20158;-69
2024/03/27 06:18:01;;;;;;;1.42;0.82;;;8.60;99.90;;;;;;5061163;28;20130;-69
2024/03/27 06:20:27;;;;;;;2.72;0.82;;;8.60;99.90;;;;;;5071911;28;20046;-69
2024/03/27 06:22:54;;;;;;;1.90;1.02;;;8.70;99.90;;;;;;5060791;28;20036;-70
2024/03/27 06:25:20;;;;;;;2.75;1.00;;;8.70;99.90;;;;;;5060166;28;20131;-70
2024/03/27 06:27:45;;;;;;;2.45;1.80;;;8.80;99.90;;;;;;5045195;28;20231;-70
2024/03/27 06:30:12;;;;;;;9.15;1.30;;;8.80;99.90;;;;;;5067497;28;20036;-70
2024/03/27 06:32:39;;;;;;;1.80;1.05;;;8.90;99.90;;;;;;5080607;28;20035;-70
2024/03/27 06:35:06;;;;;;;3.33;1.35;;;8.90;99.90;;;;;;5053273;28;20041;-70
2024/03/27 06:37:31;;;;;;;1.23;0.63;;;9.10;99.90;;;;;;5055196;28;20074;-70
2024/03/27 06:39:57;;;;;;;0.93;0.85;;;9.20;99.90;;;;;;5064589;28;20094;-70
2024/03/27 06:42:23;;;;;;;7.32;1.20;;;9.30;99.90;;;;;;5062575;28;20036;-70
2024/03/27 06:44:49;;;;;;;1.85;0.82;;;9.40;99.90;;;;;;5053894;28;20034;-70
2024/03/27 06:47:15;;;;;;;1.10;0.70;;;9.60;99.90;;;;;;5062611;28;20033;-70
2024/03/27 06:49:41;;;;;;;2.50;1.20;;;9.70;99.90;;;;;;5062595;28;20039;-71
2024/03/27 06:52:07;;;;;;;1.90;1.05;;;9.80;99.90;;;;;;5063261;28;20048;-69
2024/03/27 06:54:45;;;;;;;2.10;1.05;;;10.00;99.90;;;;;;5061958;28;20481;-70
2024/03/27 06:57:11;;;;;;;2.38;1.17;;;10.10;99.90;;;;;;5061743;28;20487;-71
2024/03/27 06:59:37;;;;;;;1.80;0.75;;;10.20;99.90;;;;;;5063673;28;20037;-70
2024/03/27 07:02:02;;;;;;;2.28;1.20;;;10.30;99.90;;;;;;5093422;28;20369;-71
2024/03/27 07:04:28;;;;;;;2.28;1.20;;;10.30;99.90;;;;;;5060643;28;20036;-70
2024/03/27 07:06:54;;;;;;;1.65;1.23;;;10.30;99.90;;;;;;5051890;28;20032;-71
2024/03/27 07:09:19;;;;;;;2.10;1.33;;;10.40;99.90;;;;;;5042292;28;20082;-71
2024/03/27 07:11:45;;;;;;;2.42;1.75;;;10.50;99.90;;;;;;5049507;28;20039;-71
2024/03/27 07:14:19;;;;;;;1.08;0.82;;;10.60;99.90;;;;;;5059591;28;20048;-71
2024/03/27 07:16:44;;;;;;;5.32;1.35;;;10.70;99.90;;;;;;5052327;28;20450;-71
2024/03/27 07:19:10;;;;;;;1.98;1.00;;;10.90;99.90;;;;;;5064423;28;20051;-71
2024/03/27 07:21:42;;;;;;;2.25;1.35;;;11.00;99.90;;;;;;5064001;28;20058;-70
2024/03/27 07:24:08;;;;;;;2.10;0.93;;;11.20;99.90;;;;;;5066013;28;20040;-70
2024/03/27 07:26:40;;;;;;;1.73;0.93;;;11.50;99.90;;;;;;5065208;28;20050;-70
2024/03/27 07:29:15;;;;;;;1.67;1.15;;;11.70;99.90;;;;;;5059344;28;20044;-71
2024/03/27 07:31:40;;;;;;;1.77;1.02;;;11.90;99.90;;;;;;5048090;28;20119;-71
2024/03/27 07:34:06;;;;;;;0.82;0.82;;;12.00;99.90;;;;;;5063163;28;20135;-71
2024/03/27 07:36:32;;;;;;;2.00;0.88;;;12.00;99.90;;;;;;5062475;28;20031;-71
2024/03/27 07:38:57;;;;;;;1.10;0.68;;;12.00;99.90;;;;;;5063707;28;20551;-70
2024/03/27 07:41:26;;;;;;;1.27;0.90;;;12.10;99.90;;;;;;5051027;28;20036;-70
2024/03/27 07:43:51;;;;;;;1.27;0.77;;;12.10;99.90;;;;;;5065502;28;20032;-71
2024/03/27 07:46:17;;;;;;;1.85;1.05;;;12.20;99.90;;;;;;5045606;28;20031;-72
2024/03/27 07:48:44;;;;;;;2.47;0.95;;;12.20;99.90;;;;;;5061825;28;20040;-70
2024/03/27 07:51:10;;;;;;;2.78;0.80;;;12.30;99.90;;;;;;5063909;28;20044;-70
2024/03/27 07:53:36;;;;;;;1.48;0.95;;;12.40;99.90;;;;;;5064508;28;20040;-70
2024/03/27 07:56:03;;;;;;;1.40;0.80;;;12.50;99.90;;;;;;5061491;28;20070;-70
2024/03/27 07:58:29;;;;;;;4.55;2.08;;;12.70;99.90;;;;;;5050900;28;20040;-71
2024/03/27 08:00:56;;;;;;;3.15;1.17;;;12.90;99.90;;;;;;5060046;28;20101;-71
2024/03/27 08:03:22;;;;;;;2.47;1.20;;;13.20;99.90;;;;;;5041508;28;20115;-71
2024/03/27 08:05:48;;;;;;;1.08;0.63;;;13.50;99.90;;;;;;5063632;28;20036;-71
2024/03/27 08:08:14;;;;;;;1.58;0.82;;;13.60;99.90;;;;;;5044675;28;20130;-71
2024/03/27 08:10:41;;;;;;;0.85;0.50;;;13.60;99.90;;;;;;5049816;28;20131;-72
2024/03/27 08:13:07;;;;;;;1.45;0.65;;;13.50;99.90;;;;;;5064500;28;20120;-72
2024/03/27 08:15:38;;;;;;;0.93;0.75;;;13.40;99.90;;;;;;5062310;28;20483;-71
2024/03/27 08:18:04;;;;;;;2.75;0.77;;;13.40;99.90;;;;;;5044127;28;20088;-71
2024/03/27 08:20:30;;;;;;;1.27;0.63;;;13.30;99.90;;;;;;5061412;28;20036;-71
2024/03/27 08:22:56;;;;;;;1.27;0.75;;;13.20;99.90;;;;;;5064098;28;20115;-71
2024/03/27 08:25:22;;;;;;;3.45;0.55;;;13.10;99.90;;;;;;5063595;28;20126;-71
2024/03/27 08:27:47;;;;;;;0.60;0.45;;;13.10;99.90;;;;;;5077962;28;20115;-71
2024/03/27 08:30:13;;;;;;;1.25;0.82;;;13.00;99.90;;;;;;5064332;28;20218;-71
2024/03/27 08:32:39;;;;;;;3.95;0.75;;;13.00;99.90;;;;;;5095980;28;20249;-71
2024/03/27 08:35:05;;;;;;;1.63;0.77;;;13.00;99.90;;;;;;5064444;28;20039;-71
2024/03/27 08:37:30;;;;;;;0.93;0.75;;;13.10;99.90;;;;;;5060125;28;20515;-71
2024/03/27 08:39:56;;;;;;;1.92;0.70;;;13.20;99.90;;;;;;5057810;28;20075;-71
2024/03/27 08:42:22;;;;;;;3.75;1.55;;;13.10;99.90;;;;;;5057907;28;20461;-71
2024/03/27 08:44:48;;;;;;;7.43;1.65;;;13.10;99.90;;;;;;5055830;28;20560;-72
2024/03/27 08:47:14;;;;;;;1.15;0.93;;;13.20;99.90;;;;;;5057251;28;20511;-71
2024/03/27 08:49:39;;;;;;;1.52;1.00;;;13.40;99.90;;;;;;5047945;28;20071;-72
2024/03/27 08:52:05;;;;;;;2.28;1.05;;;13.40;99.90;;;;;;5052432;28;20048;-71
2024/03/27 08:54:31;;;;;;;2.17;1.02;;;13.50;99.90;;;;;;5057391;28;20045;-71
2024/03/27 08:56:57;;;;;;;1.30;1.02;;;13.40;99.90;;;;;;5063762;28;20048;-71
2024/03/27 08:59:23;;;;;;;1.88;1.00;;;13.40;99.90;;;;;;5059274;28;20407;-71
2024/03/27 09:01:48;;;;;;;1.92;0.95;;;13.60;99.90;;;;;;5063533;28;20039;-71
2024/03/27 09:04:14;;;;;;;1.73;1.17;;;14.00;99.90;;;;;;5058138;28;20090;-72
2024/03/27 09:06:40;;;;;;;0.77;0.60;;;14.70;99.90;;;;;;5045765;28;20518;-72
2024/03/27 09:09:06;;;;;;;1.48;0.90;;;15.30;99.90;;;;;;5058821;28;20044;-71
2024/03/27 09:11:32;;;;;;;1.52;1.00;;;15.20;99.90;;;;;;5059370;28;20427;-71
2024/03/27 09:13:57;;;;;;;0.68;0.57;;;15.00;99.90;;;;;;5063181;28;20127;-71
2024/03/27 09:16:23;;;;;;;1.88;0.80;;;14.80;99.90;;;;;;5074500;28;20048;-71
2024/03/27 09:18:49;;;;;;;1.08;0.73;;;14.50;99.90;;;;;;5082692;28;20032;-72
2024/03/27 09:21:15;;;;;;;1.02;0.70;;;14.30;99.90;;;;;;5064021;28;20149;-72
2024/03/27 09:23:41;;;;;;;3.53;1.45;;;14.20;99.90;;;;;;5061821;28;20068;-71
2024/03/27 09:26:07;;;;;;;0.95;0.80;;;14.00;99.90;;;;;;5076619;28;20044;-71
2024/03/27 09:28:32;;;;;;;1.33;0.65;;;13.90;99.90;;;;;;5061284;28;20102;-71
2024/03/27 09:31:03;;;;;;;1.20;0.95;;;13.90;99.90;;;;;;5049132;28;20049;-71
2024/03/27 09:33:29;;;;;;;2.67;0.98;;;13.90;99.90;;;;;;5059994;28;20037;-71
2024/03/27 09:35:54;;;;;;;1.20;0.77;;;13.90;99.90;;;;;;5058024;28;20047;-71
2024/03/27 09:38:20;;;;;;;1.20;0.77;;;13.80;99.90;;;;;;5066055;28;20074;-71
2024/03/27 09:40:47;;;;;;;1.30;0.85;;;13.60;99.90;;;;;;5072304;28;20058;-72
2024/03/27 09:43:15;;;;;;;2.45;0.75;;;13.50;99.90;;;;;;5061498;28;20393;-71
2024/03/27 09:45:43;;;;;;;1.23;0.75;;;13.40;99.90;;;;;;5061154;28;20045;-70
2024/03/27 09:48:10;;;;;;;1.20;0.45;;;13.30;99.90;;;;;;5067790;28;20109;-71
2024/03/27 09:50:36;;;;;;;1.05;0.43;;;13.20;99.90;;;;;;5060089;28;20127;-71
2024/03/27 09:53:05;;;;;;;1.50;0.80;;;13.00;99.90;;;;;;5069739;28;20421;-71
2024/03/27 09:55:33;;;;;;;0.80;0.45;;;13.00;99.90;;;;;;5061561;28;20076;-71
2024/03/27 09:58:10;;;;;;;2.35;0.82;;;12.90;99.90;;;;;;5061076;28;20056;-70
2024/03/27 10:00:37;;;;;;;1.25;0.70;;;12.80;99.90;;;;;;5067899;28;20487;-72
2024/03/27 10:03:04;;;;;;;3.58;0.77;;;12.60;99.90;;;;;;5063754;28;20047;-71
2024/03/27 10:05:31;;;;;;;0.68;0.40;;;12.50;99.90;;;;;;5064371;28;20051;-70
2024/03/27 10:07:57;;;;;;;2.20;0.85;;;12.40;99.90;;;;;;5067240;28;20502;-69
2024/03/27 10:10:26;;;;;;;3.22;0.80;;;12.20;99.90;;;;;;5066730;28;20032;-70
2024/03/27 10:12:53;;;;;;;1.88;1.20;;;12.10;99.90;;;;;;5061788;28;20115;-70
2024/03/27 10:15:19;;;;;;;1.05;0.75;;;12.10;99.90;;;;;;5068578;28;20079;-70
2024/03/27 10:17:45;;;;;;;2.28;1.02;;;12.10;99.90;;;;;;5079220;28;20062;-69
2024/03/27 10:20:11;;;;;;;1.88;0.68;;;12.00;99.90;;;;;;5065353;28;20040;-69
2024/03/27 10:22:38;;;;;;;1.85;0.95;;;12.00;99.90;;;;;;5062484;28;20078;-70
2024/03/27 10:25:05;;;;;;;1.15;0.80;;;11.90;99.90;;;;;;5066449;28;20048;-70
2024/03/27 10:27:36;;;;;;;2.03;0.57;;;11.90;99.90;;;;;;5061146;28;20040;-70
2024/03/27 10:30:03;;;;;;;0.77;0.60;;;11.90;99.90;;;;;;5065217;28;20496;-70
2024/03/27 10:32:28;;;;;;;4.28;0.50;;;11.90;99.90;;;;;;5062683;28;20044;-71
2024/03/27 10:34:55;;;;;;;1.75;0.77;;;11.90;99.90;;;;;;5071362;28;20255;-71
2024/03/27 10:37:21;;;;;;;0.47;0.30;;;11.80;99.90;;;;;;5058424;28;20064;-70
2024/03/27 10:39:49;;;;;;;0.63;0.47;;;11.80;99.90;;;;;;5047432;28;20036;-71
2024/03/27 10:42:26;;;;;;;1.30;0.70;;;11.70;99.90;;;;;;5059990;28;20044;-70
2024/03/27 10:44:59;;;;;;;0.60;0.40;;;11.60;99.90;;;;;;5063980;28;20062;-70
2024/03/27 10:47:31;;;;;;;0.90;0.40;;;11.60;99.90;;;;;;5060901;28;20037;-70
2024/03/27 10:49:58;;;;;;;3.38;1.00;;;11.60;99.90;;;;;;5068391;28;20464;-69
2024/03/27 10:52:24;;;;;;;1.45;0.70;;;11.60;99.90;;;;;;5061696;28;20039;-70
2024/03/27 10:54:51;;;;;;;1.00;0.70;;;11.60;99.90;;;;;;5046095;28;20373;-70
2024/03/27 10:57:19;;;;;;;4.53;0.88;;;11.60;99.90;;;;;;5065257;28;20412;-70
2024/03/27 10:59:47;;;;;;;2.08;0.85;;;11.70;99.90;;;;;;5061980;28;20048;-70
2024/03/27 11:02:16;;;;;;;1.98;0.80;;;11.80;99.90;;;;;;5066374;28;20052;-69
2024/03/27 11:04:43;;;;;;;1.52;1.00;;;11.80;99.90;;;;;;5080226;28;20040;-69
2024/03/27 11:07:15;;;;;;;0.65;0.60;;;12.00;99.90;;;;;;5065965;28;20074;-70
2024/03/27 11:09:49;;;;;;;1.88;0.65;;;12.00;99.90;;;;;;5062635;28;20039;-70
2024/03/27 11:12:17;;;;;;;1.77;1.13;;;12.00;99.90;;;;;;5066230;28;20377;-69
2024/03/27 11:14:47;;;;;;;0.98;0.70;;;12.10;99.90;;;;;;5043416;28;20041;-70
2024/03/27 11:17:14;;;;;;;1.35;0.68;;;12.10;99.90;;;;;;5063487;28;20051;-71
2024/03/27 11:19:43;;;;;;;1.77;0.98;;;12.10;99.90;;;;;;5053064;28;20041;-71
2024/03/27 11:22:15;;;;;;;1.33;0.82;;;12.10;99.90;;;;;;5065213;28;20047;-69
2024/03/27 11:24:42;;;;;;;1.17;0.75;;;12.10;99.90;;;;;;5056401;28;20134;-70
2024/03/27 11:27:09;;;;;;;2.58;1.15;;;12.00;99.90;;;;;;5062624;28;20054;-70
2024/03/27 11:29:35;;;;;;;2.45;1.05;;;12.00;99.90;;;;;;5067772;28;20101;-70
2024/03/27 11:32:03;;;;;;;1.63;1.00;;;12.00;99.90;;;;;;5063012;28;20446;-70
2024/03/27 11:34:29;;;;;;;0.95;0.60;;;11.90;99.90;;;;;;5063628;28;20106;-70
2024/03/27 11:36:56;;;;;;;0.65;0.38;;;11.80;99.90;;;;;;5052509;28;20386;-70
2024/03/27 11:39:23;;;;;;;1.42;0.95;;;11.80;99.90;;;;;;5063138;28;20507;-70
2024/03/27 11:41:48;;;;;;;0.38;0.15;;;11.70;99.90;;;;;;5062484;28;20032;-71
2024/03/27 11:44:15;;;;;;;0.98;0.38;;;11.70;99.90;;;;;;5064800;28;20040;-71
2024/03/27 11:46:40;;;;;;;1.83;0.50;;;11.70;99.90;;;;;;5065178;28;20067;-72
2024/03/27 11:49:06;;;;;;;1.10;0.90;;;11.70;99.90;;;;;;5045731;28;20075;-70
2024/03/27 11:51:32;;;;;;;1.52;0.77;;;11.70;99.90;;;;;;5062148;28;20043;-71
2024/03/27 11:53:58;;;;;;;1.98;0.63;;;11.60;99.90;;;;;;5065780;28;20563;-71
2024/03/27 11:56:28;;;;;;;3.15;0.95;;;11.60;99.90;;;;;;5057124;28;20105;-71
2024/03/27 11:58:54;;;;;;;1.38;0.70;;;11.50;99.90;;;;;;5053897;28;20044;-71
2024/03/27 12:01:20;;;;;;;3.55;1.20;;;11.50;99.90;;;;;;5061672;28;20059;-70
2024/03/27 12:03:46;;;;;;;2.13;1.20;;;11.50;99.90;;;;;;5057224;28;20048;-71
2024/03/27 12:06:12;;;;;;;4.45;1.60;;;11.50;99.90;;;;;;5056115;28;20154;-71
2024/03/27 12:08:38;;;;;;;1.90;1.23;;;11.40;99.90;;;;;;5055702;28;20390;-70
2024/03/27 12:11:06;;;;;;;1.35;0.93;;;11.30;99.90;;;;;;5060103;28;20484;-71
2024/03/27 12:13:35;;;;;;;1.40;0.70;;;11.20;99.90;;;;;;5053985;28;20060;-71
2024/03/27 12:16:00;;;;;;;3.83;1.20;;;11.10;99.90;;;;;;5057119;28;20537;-71
2024/03/27 12:18:29;;;;;;;3.95;1.38;;;11.10;99.90;;;;;;5060665;28;20123;-70
2024/03/27 12:20:55;;;;;;;2.03;1.25;;;11.10;99.90;;;;;;5048035;28;20036;-71
2024/03/27 12:23:21;;;;;;;1.85;1.38;;;11.00;99.90;;;;;;5053992;28;20127;-70
2024/03/27 12:25:46;;;;;;;2.70;1.20;;;10.90;99.90;;;;;;5064613;28;20033;-70
2024/03/27 12:28:12;;;;;;;4.22;1.80;;;10.90;99.90;;;;;;5061484;28;20513;-69
2024/03/27 12:30:39;;;;;;;1.60;0.90;;;10.80;99.90;;;;;;5056408;28;20526;-70
2024/03/27 12:33:05;;;;;;;2.60;1.25;;;10.80;99.90;;;;;;5060125;28;20044;-70
2024/03/27 12:35:31;;;;;;;2.70;1.67;;;10.80;99.90;;;;;;5057876;28;20043;-70
2024/03/27 12:37:57;;;;;;;3.65;1.73;;;10.80;99.90;;;;;;5063480;28;20492;-70
2024/03/27 12:40:23;;;;;;;5.03;2.10;;;10.80;99.90;;;;;;5054901;28;20044;-71
2024/03/27 12:42:49;;;;;;;1.88;1.38;;;10.80;99.90;;;;;;5055219;28;20076;-70
2024/03/27 12:45:15;;;;;;;2.22;1.45;;;10.80;99.90;;;;;;5059178;28;20040;-70
2024/03/27 12:47:40;;;;;;;3.05;1.73;;;10.80;99.90;;;;;;5062721;28;20135;-70
2024/03/27 12:50:06;;;;;;;3.58;1.90;;;10.90;99.90;;;;;;5060071;28;20120;-70